createdAt,value
2019-03-22T00:00:01.796Z,10.55
2019-03-22T00:02:30.101Z,10.54
2019-03-22T00:04:58.462Z,10.54
2019-03-22T00:07:31.100Z,10.54
2019-03-22T00:09:59.721Z,10.53
2019-03-22T00:12:28.038Z,10.52
2019-03-22T00:14:56.335Z,10.52
2019-03-22T00:17:24.719Z,10.52
2019-03-22T00:19:53.000Z,10.50
2019-03-22T00:22:21.253Z,10.49
2019-03-22T00:24:49.674Z,10.46
2019-03-22T00:27:18.627Z,10.44
2019-03-22T00:29:46.952Z,10.44
2019-03-22T00:32:15.338Z,10.41
2019-03-22T00:34:44.291Z,10.40
2019-03-22T00:37:12.606Z,10.41
2019-03-22T00:39:40.930Z,10.38
2019-03-22T00:42:09.189Z,10.35
2019-03-22T00:44:37.507Z,10.33
2019-03-22T00:47:05.754Z,10.31
2019-03-22T00:49:34.132Z,10.32
2019-03-22T00:52:02.522Z,10.31
2019-03-22T00:54:30.818Z,10.28
2019-03-22T00:56:59.119Z,10.28
2019-03-22T00:59:27.507Z,10.27
2019-03-22T01:01:55.832Z,10.28
2019-03-22T01:04:24.092Z,10.25
2019-03-22T01:06:52.533Z,10.23
2019-03-22T01:09:20.790Z,10.25
2019-03-22T01:11:49.061Z,10.22
2019-03-22T01:14:17.404Z,10.22
2019-03-22T01:16:45.674Z,10.23
2019-03-22T01:19:13.987Z,10.21
2019-03-22T01:21:42.257Z,10.18
2019-03-22T01:24:10.521Z,10.18
2019-03-22T01:26:38.974Z,10.19
2019-03-22T01:29:07.297Z,10.17
2019-03-22T01:31:35.586Z,10.16
2019-03-22T01:34:03.965Z,10.18
2019-03-22T01:36:32.345Z,10.18
2019-03-22T01:39:00.620Z,10.17
2019-03-22T01:41:28.910Z,10.15
2019-03-22T01:43:57.193Z,10.13
2019-03-22T01:46:25.503Z,10.10
2019-03-22T01:48:53.776Z,10.06
2019-03-22T01:51:22.743Z,10.08
2019-03-22T01:53:51.127Z,10.11
2019-03-22T01:56:20.045Z,10.12
2019-03-22T01:58:48.328Z,10.10
2019-03-22T02:01:16.588Z,10.11
2019-03-22T02:03:44.958Z,10.11
2019-03-22T02:06:13.286Z,10.10
2019-03-22T02:08:41.589Z,10.04
2019-03-22T02:11:10.053Z,10.04
2019-03-22T02:13:38.359Z,10.00
2019-03-22T02:16:06.614Z,9.99
2019-03-22T02:18:35.039Z,9.97
2019-03-22T02:21:03.323Z,9.97
2019-03-22T02:23:31.575Z,9.97
2019-03-22T02:25:59.925Z,9.99
2019-03-22T02:28:28.177Z,9.96
2019-03-22T02:30:56.482Z,9.94
2019-03-22T02:33:24.788Z,9.90
2019-03-22T02:35:53.139Z,9.88
2019-03-22T02:38:21.444Z,9.89
2019-03-22T02:40:49.709Z,9.88
2019-03-22T02:43:17.989Z,9.88
2019-03-22T02:45:46.337Z,9.88
2019-03-22T02:48:14.597Z,9.83
2019-03-22T02:50:42.913Z,9.83
2019-03-22T02:53:12.123Z,9.83
2019-03-22T02:55:40.432Z,9.83
2019-03-22T02:58:20.336Z,9.82
2019-03-22T03:00:38.909Z,9.79
2019-03-22T03:03:07.163Z,9.77
2019-03-22T03:05:35.599Z,9.70
2019-03-22T03:08:03.854Z,9.66
2019-03-22T03:10:32.181Z,9.62
2019-03-22T03:13:00.479Z,9.64
2019-03-22T03:15:28.782Z,9.60
2019-03-22T03:17:57.024Z,9.57
2019-03-22T03:20:25.333Z,9.56
2019-03-22T03:22:53.601Z,9.52
2019-03-22T03:25:21.987Z,9.49
2019-03-22T03:27:50.332Z,9.47
2019-03-22T03:30:22.128Z,9.48
2019-03-22T03:32:50.453Z,9.45
2019-03-22T03:35:18.914Z,9.39
2019-03-22T03:37:47.185Z,9.39
2019-03-22T03:40:15.716Z,9.33
2019-03-22T03:42:44.035Z,9.33
2019-03-22T03:45:35.439Z,9.32
2019-03-22T03:48:10.457Z,9.33
2019-03-22T03:50:38.843Z,9.36
2019-03-22T03:53:07.337Z,9.38
2019-03-22T03:55:35.632Z,9.40
2019-03-22T03:58:04.103Z,9.42
2019-03-22T04:00:32.348Z,9.43
2019-03-22T04:03:00.801Z,9.42
2019-03-22T04:05:29.098Z,9.41
2019-03-22T04:07:57.351Z,9.39
2019-03-22T04:10:26.137Z,9.39
2019-03-22T04:12:54.438Z,9.39
2019-03-22T04:15:22.774Z,9.31
2019-03-22T04:17:51.052Z,9.28
2019-03-22T04:20:19.402Z,9.22
2019-03-22T04:22:47.678Z,9.21
2019-03-22T04:25:15.990Z,9.19
2019-03-22T04:27:44.332Z,9.16
2019-03-22T04:30:12.634Z,9.13
2019-03-22T04:32:41.714Z,9.12
2019-03-22T04:35:10.323Z,9.12
2019-03-22T04:37:38.633Z,9.15
2019-03-22T04:40:10.153Z,9.18
2019-03-22T04:42:38.475Z,9.18
2019-03-22T04:45:07.023Z,9.19
2019-03-22T04:47:35.271Z,9.19
2019-03-22T04:50:03.802Z,9.13
2019-03-22T04:52:32.117Z,9.12
2019-03-22T04:55:00.537Z,9.11
2019-03-22T04:57:28.879Z,9.13
2019-03-22T04:59:57.537Z,9.14
2019-03-22T05:02:25.950Z,9.14
2019-03-22T05:04:54.203Z,9.13
2019-03-22T05:07:22.607Z,9.16
2019-03-22T05:09:53.685Z,9.18
2019-03-22T05:12:22.717Z,9.21
2019-03-22T05:14:51.082Z,9.25
2019-03-22T05:17:19.381Z,9.25
2019-03-22T05:19:50.859Z,9.27
2019-03-22T05:22:19.186Z,9.26
2019-03-22T05:24:47.475Z,9.22
2019-03-22T05:27:15.978Z,9.20
2019-03-22T05:29:44.223Z,9.18
2019-03-22T05:32:14.250Z,9.18
2019-03-22T05:34:42.629Z,9.15
2019-03-22T05:37:10.935Z,9.11
2019-03-22T05:39:39.186Z,9.09
2019-03-22T05:42:07.648Z,9.09
2019-03-22T05:44:35.904Z,9.07
2019-03-22T05:47:04.212Z,9.05
2019-03-22T05:49:33.182Z,9.05
2019-03-22T05:52:01.432Z,9.04
2019-03-22T05:54:29.731Z,9.06
2019-03-22T05:56:58.829Z,9.08
2019-03-22T05:59:27.075Z,9.10
2019-03-22T06:01:55.477Z,9.09
2019-03-22T06:04:23.827Z,9.10
2019-03-22T06:06:52.184Z,9.12
2019-03-22T06:09:20.456Z,9.13
2019-03-22T06:11:48.770Z,9.10
2019-03-22T06:14:17.040Z,9.06
2019-03-22T06:16:45.298Z,9.03
2019-03-22T06:19:13.774Z,9.05
2019-03-22T06:21:42.034Z,9.08
2019-03-22T06:24:10.955Z,9.09
2019-03-22T06:26:39.343Z,9.08
2019-03-22T06:29:07.668Z,9.12
2019-03-22T06:31:35.940Z,9.11
2019-03-22T06:34:04.230Z,9.10
2019-03-22T06:36:32.526Z,9.03
2019-03-22T06:39:00.997Z,9.03
2019-03-22T06:41:29.283Z,9.03
2019-03-22T06:43:57.788Z,9.04
2019-03-22T06:46:26.085Z,9.07
2019-03-22T06:48:54.341Z,9.12
2019-03-22T06:51:22.594Z,9.12
2019-03-22T06:53:50.897Z,9.12
2019-03-22T06:56:19.301Z,9.14
2019-03-22T06:58:47.582Z,9.15
2019-03-22T07:01:15.963Z,9.17
2019-03-22T07:03:44.283Z,9.12
2019-03-22T07:06:12.595Z,9.11
2019-03-22T07:08:40.966Z,9.05
2019-03-22T07:11:10.149Z,9.04
2019-03-22T07:13:38.552Z,9.01
2019-03-22T07:16:07.490Z,9.01
2019-03-22T07:18:35.967Z,9.04
2019-03-22T07:21:04.401Z,9.02
2019-03-22T07:23:32.642Z,9.07
2019-03-22T07:26:01.063Z,9.12
2019-03-22T07:28:29.449Z,9.17
2019-03-22T07:30:57.701Z,9.20
2019-03-22T07:33:26.087Z,9.24
2019-03-22T07:35:54.382Z,9.24
2019-03-22T07:38:23.103Z,9.22
2019-03-22T07:40:51.389Z,9.23
2019-03-22T07:43:19.639Z,9.28
2019-03-22T07:45:49.333Z,9.26
2019-03-22T07:48:17.625Z,9.30
2019-03-22T07:50:45.925Z,9.37
2019-03-22T07:53:14.371Z,9.40
2019-03-22T07:55:42.694Z,9.39
2019-03-22T07:58:11.128Z,9.44
2019-03-22T08:00:39.414Z,9.49
2019-03-22T08:03:07.806Z,9.54
2019-03-22T08:05:36.138Z,9.60
2019-03-22T08:08:04.552Z,9.66
2019-03-22T08:10:32.892Z,9.66
2019-03-22T08:13:01.325Z,9.72
2019-03-22T08:15:31.081Z,9.72
2019-03-22T08:17:59.955Z,9.71
2019-03-22T08:20:28.336Z,9.71
2019-03-22T08:22:56.678Z,9.70
2019-03-22T08:25:25.039Z,9.75
2019-03-22T08:27:53.548Z,9.80
2019-03-22T08:30:21.890Z,9.88
2019-03-22T08:32:50.575Z,9.96
2019-03-22T08:35:19.106Z,10.05
2019-03-22T08:37:52.460Z,10.14
2019-03-22T08:40:17.651Z,10.18
2019-03-22T08:42:46.750Z,10.18
2019-03-22T08:45:15.071Z,10.20
2019-03-22T08:47:43.387Z,10.23
2019-03-22T08:50:11.767Z,10.30
2019-03-22T08:52:40.191Z,10.35
2019-03-22T08:55:08.798Z,10.39
2019-03-22T08:57:37.125Z,10.43
2019-03-22T09:00:10.886Z,10.51
2019-03-22T09:02:39.348Z,10.57
2019-03-22T09:05:07.743Z,10.63
2019-03-22T09:07:36.024Z,10.70
2019-03-22T09:10:10.172Z,10.80
2019-03-22T09:12:38.454Z,10.86
2019-03-22T09:15:07.837Z,10.88
2019-03-22T09:17:36.143Z,10.99
2019-03-22T09:20:07.490Z,11.00
2019-03-22T09:22:35.781Z,11.03
2019-03-22T09:25:05.549Z,11.15
2019-03-22T09:27:36.463Z,11.22
2019-03-22T09:30:05.892Z,11.33
2019-03-22T09:32:34.233Z,11.40
2019-03-22T09:35:02.483Z,11.43
2019-03-22T09:37:31.727Z,11.59
2019-03-22T09:40:00.465Z,11.71
2019-03-22T09:42:28.851Z,11.80
2019-03-22T09:44:57.189Z,11.92
2019-03-22T09:47:25.540Z,12.07
2019-03-22T09:49:53.806Z,12.14
2019-03-22T09:52:22.118Z,12.27
2019-03-22T09:54:50.484Z,12.41
2019-03-22T09:57:18.850Z,12.62
2019-03-22T09:59:47.554Z,12.78
2019-03-22T10:02:15.877Z,12.94
2019-03-22T10:04:44.244Z,13.17
2019-03-22T10:07:12.654Z,13.32
2019-03-22T10:09:41.004Z,13.48
2019-03-22T10:12:09.367Z,13.64
2019-03-22T10:14:37.712Z,13.72
2019-03-22T10:17:06.259Z,13.90
2019-03-22T10:19:34.835Z,14.12
2019-03-22T10:22:03.105Z,14.29
2019-03-22T10:24:31.362Z,14.48
2019-03-22T10:26:59.638Z,14.68
2019-03-22T10:29:27.956Z,14.89
2019-03-22T10:31:56.326Z,15.07
2019-03-22T10:34:24.597Z,15.18
2019-03-22T10:36:52.992Z,15.34
2019-03-22T10:39:21.244Z,15.43
2019-03-22T10:41:49.533Z,15.55
2019-03-22T10:44:17.839Z,15.84
2019-03-22T10:46:46.124Z,16.13
2019-03-22T10:49:14.384Z,16.33
2019-03-22T10:51:56.032Z,16.53
2019-03-22T10:54:13.414Z,16.86
2019-03-22T10:56:41.766Z,17.10
2019-03-22T10:59:10.047Z,17.35
2019-03-22T11:01:51.933Z,17.54
2019-03-22T11:06:36.712Z,17.97
2019-03-22T11:09:07.403Z,18.18
2019-03-22T11:11:35.708Z,18.43
2019-03-22T11:14:03.997Z,18.64
2019-03-22T11:16:32.241Z,18.90
2019-03-22T11:19:00.520Z,19.21
2019-03-22T11:21:28.771Z,19.49
2019-03-22T11:23:57.041Z,19.72
2019-03-22T11:26:25.294Z,20.02
2019-03-22T11:28:53.829Z,20.36
2019-03-22T11:31:28.315Z,20.54
2019-03-22T11:33:52.059Z,20.78
2019-03-22T11:36:20.432Z,20.90
2019-03-22T11:38:48.683Z,21.01
2019-03-22T11:41:17.096Z,21.11
2019-03-22T11:43:45.365Z,21.19
2019-03-22T11:46:13.610Z,21.19
2019-03-22T11:48:42.769Z,21.15
2019-03-22T11:51:11.018Z,21.33
2019-03-22T11:53:39.294Z,21.58
2019-03-22T11:56:09.417Z,21.84
2019-03-22T11:58:37.580Z,22.22
2019-03-22T12:01:05.827Z,22.46
2019-03-22T12:03:34.101Z,22.56
2019-03-22T12:06:02.384Z,22.48
2019-03-22T12:08:30.702Z,22.44
2019-03-22T12:10:59.003Z,22.60
2019-03-22T12:13:27.252Z,22.85
2019-03-22T12:15:55.565Z,23.12
2019-03-22T12:18:24.588Z,23.26
2019-03-22T12:20:53.030Z,23.38
2019-03-22T12:23:21.406Z,23.41
2019-03-22T12:25:49.640Z,23.66
2019-03-22T12:28:17.958Z,23.71
2019-03-22T12:30:46.255Z,23.76
2019-03-22T12:33:14.522Z,23.81
2019-03-22T12:35:42.856Z,23.84
2019-03-22T12:38:11.125Z,24.01
2019-03-22T12:40:39.408Z,24.10
2019-03-22T12:43:07.723Z,24.30
2019-03-22T12:45:35.968Z,24.43
2019-03-22T12:48:04.387Z,24.54
2019-03-22T12:50:36.341Z,24.59
2019-03-22T12:53:04.654Z,24.59
2019-03-22T12:55:33.004Z,24.67
2019-03-22T12:58:01.262Z,24.55
2019-03-22T13:00:29.540Z,24.49
2019-03-22T13:02:57.875Z,24.64
2019-03-22T13:05:26.123Z,24.75
2019-03-22T13:07:54.367Z,24.94
2019-03-22T13:10:25.872Z,25.10
2019-03-22T13:12:54.151Z,25.24
2019-03-22T13:15:22.447Z,25.36
2019-03-22T13:17:50.709Z,25.28
2019-03-22T13:20:18.957Z,25.19
2019-03-22T13:22:47.335Z,25.17
2019-03-22T13:25:21.083Z,25.36
2019-03-22T13:27:48.925Z,25.66
2019-03-22T13:30:35.524Z,25.83
2019-03-22T13:33:04.273Z,25.84
2019-03-22T13:35:32.654Z,25.70
2019-03-22T13:38:00.911Z,25.62
2019-03-22T13:40:29.458Z,25.51
2019-03-22T13:42:57.712Z,25.52
2019-03-22T13:45:26.011Z,25.66
2019-03-22T13:47:54.306Z,25.63
2019-03-22T13:50:22.606Z,25.68
2019-03-22T13:52:50.909Z,25.66
2019-03-22T13:55:19.164Z,25.54
2019-03-22T13:57:47.454Z,25.53
2019-03-22T14:00:16.957Z,25.72
2019-03-22T14:02:45.882Z,25.93
2019-03-22T14:05:14.292Z,25.80
2019-03-22T14:07:42.553Z,25.90
2019-03-22T14:10:31.456Z,26.12
2019-03-22T14:13:03.401Z,26.32
2019-03-22T14:15:31.656Z,26.37
2019-03-22T14:18:00.144Z,26.34
2019-03-22T14:20:28.507Z,26.46
2019-03-22T14:22:56.819Z,26.56
2019-03-22T14:25:25.348Z,26.63
2019-03-22T14:27:54.203Z,26.56
2019-03-22T14:30:22.448Z,26.46
2019-03-22T14:32:50.744Z,26.43
2019-03-22T14:35:19.067Z,26.36
2019-03-22T14:37:47.452Z,26.30
2019-03-22T14:40:15.977Z,26.30
2019-03-22T14:42:44.331Z,26.29
2019-03-22T14:45:13.345Z,25.90
2019-03-22T14:47:41.604Z,25.75
2019-03-22T14:50:10.096Z,25.80
2019-03-22T14:52:38.339Z,25.86
2019-03-22T14:55:06.667Z,25.91
2019-03-22T14:57:35.288Z,25.97
2019-03-22T15:00:05.691Z,25.96
2019-03-22T15:02:33.981Z,25.84
2019-03-22T15:05:02.227Z,25.80
2019-03-22T15:07:30.619Z,25.73
2019-03-22T15:09:58.884Z,25.67
2019-03-22T15:12:27.135Z,25.57
2019-03-22T15:15:02.865Z,25.56
2019-03-22T15:17:32.756Z,25.47
2019-03-22T15:20:18.747Z,25.37
2019-03-22T15:23:00.561Z,25.38
2019-03-22T15:25:36.302Z,25.33
2019-03-22T15:28:24.333Z,25.16
2019-03-22T15:31:06.823Z,25.08
2019-03-22T15:33:36.769Z,24.97
2019-03-22T15:36:22.595Z,24.79
2019-03-22T15:38:55.449Z,24.61
2019-03-22T15:41:23.761Z,24.55
2019-03-22T15:43:52.195Z,24.57
2019-03-22T15:46:20.554Z,24.55
2019-03-22T15:48:48.826Z,24.45
2019-03-22T15:51:17.230Z,24.36
2019-03-22T15:53:45.531Z,24.23
2019-03-22T15:56:15.735Z,24.13
2019-03-22T15:58:43.937Z,24.05
2019-03-22T16:01:12.197Z,23.80
2019-03-22T16:03:44.338Z,23.62
2019-03-22T16:06:10.448Z,23.55
2019-03-22T16:08:38.846Z,23.38
2019-03-22T16:11:07.961Z,23.21
2019-03-22T16:13:36.218Z,23.02
2019-03-22T16:16:04.487Z,22.82
2019-03-22T16:18:32.739Z,22.65
2019-03-22T16:21:01.017Z,22.48
2019-03-22T16:23:29.378Z,22.28
2019-03-22T16:25:57.751Z,22.13
2019-03-22T16:28:26.055Z,21.98
2019-03-22T16:30:54.293Z,21.85
2019-03-22T16:33:23.066Z,21.74
2019-03-22T16:35:51.309Z,21.58
2019-03-22T16:38:19.587Z,21.49
2019-03-22T16:40:47.876Z,21.45
2019-03-22T16:43:16.177Z,21.39
2019-03-22T16:45:44.562Z,21.24
2019-03-22T16:48:12.824Z,21.09
2019-03-22T16:50:41.091Z,21.02
2019-03-22T16:53:09.406Z,20.96
2019-03-22T16:55:37.702Z,20.94
2019-03-22T16:58:05.954Z,20.88
2019-03-22T17:00:34.250Z,20.82
2019-03-22T17:03:02.905Z,20.74
2019-03-22T17:05:31.177Z,20.64
2019-03-22T17:07:59.421Z,20.52
2019-03-22T17:10:27.706Z,20.47
2019-03-22T17:12:55.972Z,20.42
2019-03-22T17:15:24.322Z,20.39
2019-03-22T17:17:52.574Z,20.35
2019-03-22T17:20:20.855Z,20.26
2019-03-22T17:22:49.101Z,20.18
2019-03-22T17:25:17.440Z,20.11
2019-03-22T17:27:46.457Z,19.99
2019-03-22T17:30:14.785Z,19.86
2019-03-22T17:32:43.059Z,19.78
2019-03-22T17:35:11.315Z,19.67
2019-03-22T17:37:39.603Z,19.58
2019-03-22T17:40:08.144Z,19.53
2019-03-22T17:42:38.076Z,19.48
2019-03-22T17:45:08.425Z,19.43
2019-03-22T17:47:39.399Z,19.37
2019-03-22T17:50:08.934Z,19.31
2019-03-22T17:52:37.179Z,19.24
2019-03-22T17:55:09.395Z,19.16
2019-03-22T17:57:37.667Z,19.07
2019-03-22T18:00:21.169Z,18.96
2019-03-22T18:02:49.449Z,18.87
2019-03-22T18:05:17.712Z,18.77
2019-03-22T18:07:47.190Z,18.52
2019-03-22T18:10:15.464Z,18.26
2019-03-22T18:12:43.713Z,18.15
2019-03-22T18:15:12.933Z,18.09
2019-03-22T18:17:41.292Z,18.04
2019-03-22T18:20:14.682Z,17.95
2019-03-22T18:22:42.955Z,17.90
2019-03-22T18:25:11.736Z,17.82
2019-03-22T18:27:40.049Z,17.75
2019-03-22T18:30:15.817Z,17.68
2019-03-22T18:32:44.102Z,17.59
2019-03-22T18:35:12.404Z,17.48
2019-03-22T18:37:40.649Z,17.40
2019-03-22T18:40:15.227Z,17.30
2019-03-22T18:42:43.695Z,17.23
2019-03-22T18:45:13.154Z,17.15
2019-03-22T18:47:42.273Z,17.08
2019-03-22T18:50:11.150Z,17.00
2019-03-22T18:52:39.427Z,16.92
2019-03-22T18:55:08.111Z,16.81
2019-03-22T18:57:36.468Z,16.67
2019-03-22T19:00:16.105Z,16.54
2019-03-22T19:02:44.434Z,16.43
2019-03-22T19:05:13.492Z,16.31
2019-03-22T19:07:41.749Z,16.21
2019-03-22T19:10:13.294Z,16.14
2019-03-22T19:12:41.600Z,16.06
2019-03-22T19:15:12.632Z,16.00
2019-03-22T19:17:40.962Z,15.92
2019-03-22T19:20:11.484Z,15.82
2019-03-22T19:22:39.931Z,15.71
2019-03-22T19:25:09.251Z,15.63
2019-03-22T19:27:37.536Z,15.51
2019-03-22T19:30:14.058Z,15.42
2019-03-22T19:32:42.320Z,15.31
2019-03-22T19:35:10.561Z,15.20
2019-03-22T19:37:38.937Z,15.11
2019-03-22T19:40:09.717Z,15.04
2019-03-22T19:42:37.987Z,15.00
2019-03-22T19:45:08.015Z,14.93
2019-03-22T19:47:36.265Z,14.89
2019-03-22T19:50:07.157Z,14.83
2019-03-22T19:52:35.555Z,14.77
2019-03-22T19:55:06.334Z,14.69
2019-03-22T19:57:34.636Z,14.61
2019-03-22T20:00:03.246Z,14.53
2019-03-22T20:02:31.585Z,14.47
2019-03-22T20:05:04.640Z,14.40
2019-03-22T20:07:29.874Z,14.34
2019-03-22T20:09:58.117Z,14.26
2019-03-22T20:12:26.459Z,14.17
2019-03-22T20:14:54.713Z,14.11
2019-03-22T20:17:23.011Z,14.03
2019-03-22T20:19:51.262Z,13.97
2019-03-22T20:22:19.512Z,13.90
2019-03-22T20:24:47.947Z,13.83
2019-03-22T20:27:16.242Z,13.78
2019-03-22T20:29:44.480Z,13.73
2019-03-22T20:32:12.762Z,13.67
2019-03-22T20:34:41.170Z,13.60
2019-03-22T20:37:09.505Z,13.54
2019-03-22T20:39:37.755Z,13.47
2019-03-22T20:42:06.136Z,13.43
2019-03-22T20:44:34.429Z,13.36
2019-03-22T20:47:02.689Z,13.32
2019-03-22T20:49:30.979Z,13.29
2019-03-22T20:51:59.251Z,13.23
2019-03-22T20:54:27.541Z,13.20
2019-03-22T20:56:55.832Z,13.15
2019-03-22T20:59:24.118Z,13.10
2019-03-22T21:01:52.510Z,13.04
2019-03-22T21:04:20.892Z,13.00
2019-03-22T21:06:49.255Z,12.94
2019-03-22T21:09:17.621Z,12.90
2019-03-22T21:11:45.955Z,12.84
2019-03-22T21:14:14.230Z,12.80
2019-03-22T21:16:42.510Z,12.74
2019-03-22T21:19:10.810Z,12.67
2019-03-22T21:21:39.085Z,12.62
2019-03-22T21:24:08.853Z,12.53
2019-03-22T21:26:37.426Z,12.46
2019-03-22T21:29:05.724Z,12.44
2019-03-22T21:31:34.026Z,12.41
2019-03-22T21:34:02.383Z,12.41
2019-03-22T21:36:30.640Z,12.40
2019-03-22T21:38:58.947Z,12.40
2019-03-22T21:41:27.192Z,12.36
2019-03-22T21:43:55.438Z,12.35
2019-03-22T21:46:23.757Z,12.31
2019-03-22T21:48:52.025Z,12.28
2019-03-22T21:51:20.320Z,12.24
2019-03-22T21:53:48.631Z,12.22
2019-03-22T21:56:17.039Z,12.20
2019-03-22T21:58:45.348Z,12.16
2019-03-22T22:01:13.584Z,12.11
2019-03-22T22:03:41.865Z,12.05
2019-03-22T22:06:10.125Z,12.02
2019-03-22T22:08:38.434Z,11.97
2019-03-22T22:11:06.759Z,11.90
2019-03-22T22:13:35.060Z,11.86
2019-03-22T22:16:03.374Z,11.76
2019-03-22T22:18:31.676Z,11.72
2019-03-22T22:20:59.919Z,11.69
2019-03-22T22:23:28.256Z,11.62
2019-03-22T22:25:56.682Z,11.61
2019-03-22T22:28:24.984Z,11.55
2019-03-22T22:30:53.443Z,11.51
2019-03-22T22:33:21.794Z,11.40
2019-03-22T22:35:58.314Z,11.32
2019-03-22T22:38:20.122Z,11.19
2019-03-22T22:40:48.376Z,11.01
2019-03-22T22:43:16.698Z,10.63
2019-03-22T22:45:45.028Z,10.36
2019-03-22T22:48:13.315Z,9.99
2019-03-22T22:50:41.592Z,9.82
2019-03-22T22:53:09.879Z,9.65
2019-03-22T22:55:38.513Z,9.44
2019-03-22T22:58:06.757Z,9.15
2019-03-22T23:00:35.322Z,8.96
2019-03-22T23:03:03.684Z,8.90
2019-03-22T23:05:32.502Z,8.94
2019-03-22T23:08:03.207Z,8.94
2019-03-22T23:10:31.497Z,8.91
2019-03-22T23:12:59.875Z,8.81
2019-03-22T23:15:28.133Z,8.70
2019-03-22T23:17:56.480Z,8.65
2019-03-22T23:20:24.799Z,8.64
2019-03-22T23:22:53.044Z,8.66
2019-03-22T23:25:21.378Z,8.58
2019-03-22T23:27:49.751Z,8.62
2019-03-22T23:30:18.396Z,8.61
2019-03-22T23:32:46.689Z,8.64
2019-03-22T23:35:14.970Z,8.66
2019-03-22T23:37:43.249Z,8.67
2019-03-22T23:40:11.511Z,8.66
2019-03-22T23:42:40.130Z,8.75
2019-03-22T23:45:10.696Z,8.79
2019-03-22T23:47:38.993Z,8.77
2019-03-22T23:50:07.524Z,8.70
2019-03-22T23:52:35.776Z,8.67
2019-03-22T23:55:05.755Z,8.70
2019-03-22T23:57:34.005Z,8.65
